Time;durP1;ratioP1;P1;durP2;ratioP2;P2;SDS_P1;SDS_P2;PMS_P1;PMS_P2;Temp;Humidity;BMP_temperature;BMP_pressure;BME280_temperature;BME280_humidity;BME280_pressure;Samples;Min_cycle;Max_cycle;Signal;HPM_P1;HPM_P2
2020/12/13 00:02:43;;;;;;;70.80;39.78;;;;;;;;;;6279141;28;20068;-68
2020/12/13 00:05:44;;;;;;;68.22;40.40;;;;;;;;;;6278474;28;20045;-69
2020/12/13 00:08:47;;;;;;;69.32;41.47;;;;;;;;;;6282549;28;20048;-70
2020/12/13 00:11:48;;;;;;;72.95;43.05;;;;;;;;;;6281751;28;20037;-69
2020/12/13 00:14:49;;;;;;;77.65;46.08;;;;;;;;;;6276799;28;20090;-72
2020/12/13 00:17:51;;;;;;;68.38;40.35;;;;;;;;;;6265920;28;20150;-69
2020/12/13 00:20:52;;;;;;;61.70;38.47;;;;;;;;;;6263912;28;20056;-68
2020/12/13 00:23:55;;;;;;;68.75;39.35;;;;;;;;;;6275141;28;20206;-73
2020/12/13 00:26:56;;;;;;;63.17;37.85;;;;;;;;;;6252163;28;20049;-71
2020/12/13 00:29:57;;;;;;;63.17;37.92;;;;;;;;;;6256573;28;20041;-70
2020/12/13 00:32:58;;;;;;;59.30;37.53;;;;;;;;;;6266889;28;20045;-70
2020/12/13 00:35:59;;;;;;;61.08;35.92;;;;;;;;;;6266565;28;20492;-69
2020/12/13 00:39:04;;;;;;;57.60;35.45;;;;;;;;;;6263142;28;20043;-74
2020/12/13 00:42:06;;;;;;;60.08;37.88;;;;;;;;;;6259912;28;20055;-70
2020/12/13 00:45:07;;;;;;;62.72;38.55;;;;;;;;;;6266708;28;20122;-70
2020/12/13 00:48:09;;;;;;;64.82;38.70;;;;;;;;;;6252903;28;20120;-69
2020/12/13 00:51:10;;;;;;;65.50;40.15;;;;;;;;;;6250799;28;20125;-72
2020/12/13 00:54:12;;;;;;;61.20;36.45;;;;;;;;;;6249004;28;20565;-69
2020/12/13 00:57:13;;;;;;;64.28;37.67;;;;;;;;;;6250616;28;20117;-68
2020/12/13 01:00:15;;;;;;;67.07;38.55;;;;;;;;;;6254754;28;20442;-72
2020/12/13 01:03:17;;;;;;;61.97;38.22;;;;;;;;;;6244421;28;20049;-71
2020/12/13 01:06:22;;;;;;;62.13;38.58;;;;;;;;;;6260271;28;20088;-69
2020/12/13 01:09:24;;;;;;;63.60;37.65;;;;;;;;;;6262349;28;20051;-68
2020/12/13 01:12:25;;;;;;;59.40;37.13;;;;;;;;;;6267210;28;20120;-71
2020/12/13 01:15:26;;;;;;;57.83;37.22;;;;;;;;;;6264466;28;20186;-71
2020/12/13 01:18:27;;;;;;;61.97;37.38;;;;;;;;;;6263562;28;20064;-67
2020/12/13 01:21:29;;;;;;;59.65;35.75;;;;;;;;;;6256930;28;20614;-67
2020/12/13 01:24:31;;;;;;;60.53;37.90;;;;;;;;;;6264293;28;20053;-70
2020/12/13 01:27:32;;;;;;;59.70;36.20;;;;;;;;;;6262796;28;20049;-71
2020/12/13 01:30:33;;;;;;;60.20;35.38;;;;;;;;;;6260460;28;20053;-69
2020/12/13 01:33:34;;;;;;;60.17;36.95;;;;;;;;;;6260967;28;20489;-70
2020/12/13 01:36:35;;;;;;;58.78;36.83;;;;;;;;;;6253775;28;20049;-69
2020/12/13 01:39:37;;;;;;;65.15;38.40;;;;;;;;;;6265248;28;20052;-70
2020/12/13 01:42:38;;;;;;;60.50;38.05;;;;;;;;;;6271388;28;20049;-71
2020/12/13 01:45:39;;;;;;;66.65;38.30;;;;;;;;;;6253164;28;20065;-71
2020/12/13 01:48:40;;;;;;;60.05;37.13;;;;;;;;;;6252419;28;20041;-68
2020/12/13 01:51:51;;;;;;;57.50;35.00;;;;;;;;;;6250563;28;20049;-73
2020/12/13 01:54:59;;;;;;;61.53;37.38;;;;;;;;;;6237890;28;20762;-69
2020/12/13 01:58:01;;;;;;;59.05;35.70;;;;;;;;;;6268294;28;20049;-68
2020/12/13 02:01:05;;;;;;;58.83;35.20;;;;;;;;;;6250602;28;20042;-73
2020/12/13 02:04:07;;;;;;;62.10;36.77;;;;;;;;;;6224195;28;20165;-69
2020/12/13 02:07:08;;;;;;;59.40;36.05;;;;;;;;;;6256723;28;20156;-71
2020/12/13 02:10:17;;;;;;;58.58;37.17;;;;;;;;;;6257127;28;20036;-69
2020/12/13 02:13:19;;;;;;;63.25;36.00;;;;;;;;;;6245154;28;20045;-68
2020/12/13 02:16:20;;;;;;;57.38;34.55;;;;;;;;;;6267087;28;20077;-68
2020/12/13 02:19:21;;;;;;;64.28;36.65;;;;;;;;;;6284243;28;20178;-73
2020/12/13 02:22:23;;;;;;;56.70;35.65;;;;;;;;;;6282382;28;20078;-69
2020/12/13 02:25:24;;;;;;;61.33;36.45;;;;;;;;;;6286388;28;20044;-68
2020/12/13 02:28:25;;;;;;;58.72;34.20;;;;;;;;;;6291778;28;20492;-68
2020/12/13 02:31:26;;;;;;;56.50;34.78;;;;;;;;;;6283149;28;20083;-69
2020/12/13 02:34:27;;;;;;;55.97;33.10;;;;;;;;;;6283668;28;20048;-69
2020/12/13 02:37:29;;;;;;;55.28;34.28;;;;;;;;;;6265855;28;20072;-68
2020/12/13 02:40:31;;;;;;;56.72;34.80;;;;;;;;;;6258130;28;20049;-68
2020/12/13 02:43:32;;;;;;;62.65;35.83;;;;;;;;;;6269395;28;20063;-69
2020/12/13 02:46:33;;;;;;;58.13;36.03;;;;;;;;;;6260970;28;20065;-69
2020/12/13 02:49:34;;;;;;;54.75;35.05;;;;;;;;;;6263220;28;20041;-69
2020/12/13 02:52:37;;;;;;;57.25;34.70;;;;;;;;;;6263034;28;20755;-68
2020/12/13 02:55:38;;;;;;;54.92;34.58;;;;;;;;;;6263095;28;20544;-69
2020/12/13 02:58:39;;;;;;;57.70;34.33;;;;;;;;;;6265066;28;20166;-72
2020/12/13 03:01:40;;;;;;;57.05;32.70;;;;;;;;;;6267408;28;20098;-74
2020/12/13 03:04:41;;;;;;;47.95;30.92;;;;;;;;;;6264184;28;20048;-70
2020/12/13 03:07:45;;;;;;;50.75;31.20;;;;;;;;;;6258090;28;20459;-70
2020/12/13 03:10:46;;;;;;;57.28;35.80;;;;;;;;;;6259905;28;20068;-70
2020/12/13 03:13:48;;;;;;;57.00;35.15;;;;;;;;;;6246892;28;20130;-72
2020/12/13 03:16:49;;;;;;;60.15;36.53;;;;;;;;;;6280974;28;20294;-71
2020/12/13 03:19:50;;;;;;;56.75;35.95;;;;;;;;;;6283284;28;20620;-69
2020/12/13 03:22:52;;;;;;;56.67;34.65;;;;;;;;;;6288740;28;20262;-72
2020/12/13 03:25:53;;;;;;;55.15;34.92;;;;;;;;;;6285146;28;20049;-74
2020/12/13 03:28:54;;;;;;;49.63;31.92;;;;;;;;;;6289605;28;20049;-71
2020/12/13 03:31:56;;;;;;;52.13;31.00;;;;;;;;;;6283936;28;20053;-69
2020/12/13 03:34:58;;;;;;;52.35;31.42;;;;;;;;;;6287790;28;20178;-68
2020/12/13 03:38:00;;;;;;;52.10;31.42;;;;;;;;;;6269766;28;20266;-70
2020/12/13 03:41:01;;;;;;;49.65;31.60;;;;;;;;;;6263307;28;20047;-69
2020/12/13 03:44:03;;;;;;;54.00;32.55;;;;;;;;;;6269686;28;20500;-69
2020/12/13 03:47:05;;;;;;;53.25;33.45;;;;;;;;;;6265012;28;20053;-69
2020/12/13 03:50:06;;;;;;;56.15;31.92;;;;;;;;;;6255875;28;20079;-69
2020/12/13 03:53:09;;;;;;;52.42;31.33;;;;;;;;;;6259293;28;20049;-69
2020/12/13 03:56:10;;;;;;;59.40;33.65;;;;;;;;;;6260209;28;20045;-69
2020/12/13 03:59:11;;;;;;;55.65;33.47;;;;;;;;;;6255843;28;20040;-69
2020/12/13 04:02:12;;;;;;;52.67;33.25;;;;;;;;;;6264374;28;20089;-68
2020/12/13 04:05:13;;;;;;;51.72;31.95;;;;;;;;;;6267332;28;20098;-70
2020/12/13 04:08:15;;;;;;;49.70;30.77;;;;;;;;;;6261860;28;20094;-69
2020/12/13 04:11:16;;;;;;;46.58;31.13;;;;;;;;;;6261496;28;20394;-69
2020/12/13 04:14:17;;;;;;;50.85;32.80;;;;;;;;;;6274278;28;20125;-68
2020/12/13 04:17:18;;;;;;;48.30;32.50;;;;;;;;;;6282241;28;20144;-67
2020/12/13 04:20:19;;;;;;;49.58;31.40;;;;;;;;;;6280545;28;20065;-69
2020/12/13 04:23:21;;;;;;;49.35;31.20;;;;;;;;;;6278796;28;20135;-68
2020/12/13 04:26:22;;;;;;;48.05;31.10;;;;;;;;;;6283796;28;20127;-71
2020/12/13 04:29:23;;;;;;;49.80;30.88;;;;;;;;;;6281304;28;20125;-68
2020/12/13 04:32:24;;;;;;;47.85;31.52;;;;;;;;;;6271242;28;21598;-68
2020/12/13 04:35:25;;;;;;;44.20;29.98;;;;;;;;;;6281154;28;20081;-72
2020/12/13 04:38:27;;;;;;;47.30;30.48;;;;;;;;;;6275148;28;20056;-70
2020/12/13 04:41:28;;;;;;;42.40;29.60;;;;;;;;;;6280470;28;20040;-70
2020/12/13 04:44:30;;;;;;;43.90;29.75;;;;;;;;;;6281746;28;20052;-71
2020/12/13 04:47:32;;;;;;;48.33;30.52;;;;;;;;;;6284602;28;20048;-69
2020/12/13 04:50:34;;;;;;;45.35;31.92;;;;;;;;;;6276420;28;20049;-70
2020/12/13 04:53:39;;;;;;;45.58;29.98;;;;;;;;;;6270919;28;20496;-71
2020/12/13 04:56:40;;;;;;;42.65;29.80;;;;;;;;;;6261084;28;20060;-72
2020/12/13 04:59:41;;;;;;;45.92;30.33;;;;;;;;;;6255344;28;20426;-71
2020/12/13 05:02:42;;;;;;;44.50;30.83;;;;;;;;;;6250425;28;20090;-72
2020/12/13 05:05:43;;;;;;;43.72;30.02;;;;;;;;;;6255363;28;20648;-70
2020/12/13 05:08:47;;;;;;;44.50;29.92;;;;;;;;;;6244897;28;20047;-70
2020/12/13 05:11:49;;;;;;;45.33;29.63;;;;;;;;;;6261790;28;20045;-69
2020/12/13 05:14:50;;;;;;;44.33;29.73;;;;;;;;;;6252037;28;20041;-69
2020/12/13 05:17:51;;;;;;;46.03;30.95;;;;;;;;;;6260210;28;20037;-70
2020/12/13 05:20:52;;;;;;;44.15;29.58;;;;;;;;;;6259712;28;20122;-70
2020/12/13 05:23:54;;;;;;;50.03;29.63;;;;;;;;;;6271699;28;20137;-70
2020/12/13 05:27:00;;;;;;;43.13;29.10;;;;;;;;;;6248602;28;20051;-70
2020/12/13 05:30:01;;;;;;;47.90;30.38;;;;;;;;;;6268634;28;20044;-69
2020/12/13 05:33:04;;;;;;;47.88;31.23;;;;;;;;;;6250692;28;20486;-70
2020/12/13 05:36:08;;;;;;;43.72;29.85;;;;;;;;;;6251122;28;20065;-74
2020/12/13 05:39:10;;;;;;;;;;;;;;;;;;6255918;28;20103;-68
2020/12/13 05:42:15;;;;;;;51.20;33.08;;;;;;;;;;6262062;28;19921;-71
2020/12/13 05:48:51;;;;;;;48.30;31.73;;;;;;;;;;6232258;28;20048;-70
2020/12/13 05:51:53;;;;;;;53.08;31.77;;;;;;;;;;6264486;28;20163;-71
2020/12/13 05:54:54;;;;;;;52.67;32.17;;;;;;;;;;6248571;28;20106;-70
2020/12/13 05:57:55;;;;;;;54.20;31.90;;;;;;;;;;6257203;28;20048;-69
2020/12/13 06:00:57;;;;;;;57.45;31.73;;;;;;;;;;6258330;28;20520;-71
2020/12/13 06:03:59;;;;;;;53.75;31.65;;;;;;;;;;6266777;28;20052;-71
2020/12/13 06:07:03;;;;;;;53.70;31.80;;;;;;;;;;6261550;28;20045;-69
2020/12/13 06:10:06;;;;;;;53.85;33.25;;;;;;;;;;6271060;28;20126;-69
2020/12/13 06:13:07;;;;;;;56.45;32.67;;;;;;;;;;6285709;28;20052;-69
2020/12/13 06:16:08;;;;;;;50.60;33.38;;;;;;;;;;6284464;28;20106;-69
2020/12/13 06:19:11;;;;;;;49.63;31.85;;;;;;;;;;6285827;28;20439;-70
2020/12/13 06:22:13;;;;;;;48.83;29.95;;;;;;;;;;6280756;28;20060;-69
2020/12/13 06:25:15;;;;;;;49.05;30.38;;;;;;;;;;6285444;28;20415;-71
2020/12/13 06:28:16;;;;;;;50.50;30.60;;;;;;;;;;6282881;28;20056;-72
2020/12/13 06:31:18;;;;;;;50.42;30.45;;;;;;;;;;6278505;28;20135;-70
2020/12/13 06:34:19;;;;;;;50.85;30.75;;;;;;;;;;6276770;28;20052;-71
2020/12/13 06:37:20;;;;;;;48.35;30.80;;;;;;;;;;6279982;28;20049;-69
2020/12/13 06:40:25;;;;;;;46.17;29.05;;;;;;;;;;6280615;28;20053;-72
2020/12/13 06:43:26;;;;;;;48.65;29.92;;;;;;;;;;6280063;28;20041;-72
2020/12/13 06:46:29;;;;;;;47.95;28.85;;;;;;;;;;6290826;28;20512;-71
2020/12/13 06:49:30;;;;;;;43.92;29.13;;;;;;;;;;6282255;28;20041;-69
2020/12/13 06:52:32;;;;;;;46.45;29.35;;;;;;;;;;6280974;28;20085;-70
2020/12/13 06:55:35;;;;;;;48.85;31.23;;;;;;;;;;6283139;28;20070;-72
2020/12/13 06:58:43;;;;;;;48.28;30.33;;;;;;;;;;6286234;28;20048;-70
2020/12/13 07:01:46;;;;;;;46.30;31.70;;;;;;;;;;6294935;28;20060;-69
2020/12/13 07:04:50;;;;;;;47.88;29.77;;;;;;;;;;6278372;28;20076;-69
2020/12/13 07:07:54;;;;;;;45.50;29.70;;;;;;;;;;6281840;28;20110;-69
2020/12/13 07:10:56;;;;;;;46.30;29.90;;;;;;;;;;6281132;28;20121;-69
2020/12/13 07:14:08;;;;;;;46.78;30.23;;;;;;;;;;6280505;28;20044;-70
2020/12/13 07:17:15;;;;;;;47.25;29.85;;;;;;;;;;6276403;28;20129;-69
2020/12/13 07:20:16;;;;;;;47.65;30.27;;;;;;;;;;6278968;28;20045;-72
2020/12/13 07:23:17;;;;;;;46.67;28.25;;;;;;;;;;6280419;28;20499;-73
2020/12/13 07:26:19;;;;;;;43.72;27.50;;;;;;;;;;6280486;28;20049;-72
2020/12/13 07:29:21;;;;;;;41.42;26.30;;;;;;;;;;6291389;28;20171;-69
2020/12/13 07:32:22;;;;;;;39.88;26.00;;;;;;;;;;6290553;28;20460;-69
2020/12/13 07:35:24;;;;;;;39.35;25.67;;;;;;;;;;6300831;28;20057;-75
2020/12/13 07:38:25;;;;;;;36.25;25.00;;;;;;;;;;6286866;28;20119;-69
2020/12/13 07:41:27;;;;;;;42.03;26.77;;;;;;;;;;6302367;28;20085;-69
2020/12/13 07:44:28;;;;;;;39.55;26.23;;;;;;;;;;6283001;28;20052;-70
2020/12/13 07:47:29;;;;;;;40.22;27.33;;;;;;;;;;6280820;28;20049;-69
2020/12/13 07:50:34;;;;;;;44.38;29.67;;;;;;;;;;6288719;28;20128;-69
2020/12/13 07:53:35;;;;;;;45.92;28.67;;;;;;;;;;6288966;28;20066;-73
2020/12/13 07:56:37;;;;;;;41.45;26.40;;;;;;;;;;6290050;28;20047;-69
2020/12/13 07:59:38;;;;;;;45.40;27.05;;;;;;;;;;6291583;28;20044;-68
2020/12/13 08:02:39;;;;;;;42.33;26.80;;;;;;;;;;6287428;28;20140;-69
2020/12/13 08:05:42;;;;;;;42.95;27.83;;;;;;;;;;6292805;28;20056;-72
2020/12/13 08:08:44;;;;;;;44.45;28.02;;;;;;;;;;6290960;28;20048;-69
2020/12/13 08:11:46;;;;;;;43.05;27.65;;;;;;;;;;6295505;28;20040;-69
2020/12/13 08:14:48;;;;;;;43.60;27.80;;;;;;;;;;6288718;28;20097;-70
2020/12/13 08:17:59;;;;;;;44.38;27.98;;;;;;;;;;6294107;28;20044;-69
2020/12/13 08:21:01;;;;;;;40.55;26.60;;;;;;;;;;6279522;28;20062;-69
2020/12/13 08:24:03;;;;;;;41.58;27.17;;;;;;;;;;6284429;28;20052;-70
2020/12/13 08:27:06;;;;;;;42.63;26.55;;;;;;;;;;6278460;28;20195;-72
2020/12/13 08:30:07;;;;;;;37.97;24.60;;;;;;;;;;6285673;28;20087;-68
2020/12/13 08:33:09;;;;;;;40.35;25.98;;;;;;;;;;6286529;28;20047;-69
2020/12/13 08:36:18;;;;;;;40.75;26.67;;;;;;;;;;6285549;28;20055;-69
2020/12/13 08:39:25;;;;;;;37.92;25.70;;;;;;;;;;5936149;28;10001444;-70
2020/12/13 08:42:27;;;;;;;39.97;26.23;;;;;;;;;;6286238;28;20135;-70
2020/12/13 08:45:28;;;;;;;39.25;25.52;;;;;;;;;;6291280;28;20049;-69
2020/12/13 08:48:29;;;;;;;41.15;25.48;;;;;;;;;;6278987;28;20127;-70
2020/12/13 08:51:30;;;;;;;41.65;25.77;;;;;;;;;;6274760;28;20127;-68
2020/12/13 08:54:44;;;;;;;40.42;27.00;;;;;;;;;;6269495;28;20056;-68
2020/12/13 08:57:45;;;;;;;42.50;28.33;;;;;;;;;;6273295;28;20094;-68
2020/12/13 09:00:48;;;;;;;44.67;29.75;;;;;;;;;;6272590;28;20094;-70
2020/12/13 09:03:49;;;;;;;42.15;26.90;;;;;;;;;;6286315;28;20056;-71
2020/12/13 09:06:55;;;;;;;40.75;27.02;;;;;;;;;;6271054;28;20098;-70
2020/12/13 09:09:56;;;;;;;38.88;26.75;;;;;;;;;;6278746;28;20040;-68
2020/12/13 09:13:06;;;;;;;40.00;26.88;;;;;;;;;;6281645;28;20047;-68
2020/12/13 09:16:07;;;;;;;37.13;25.58;;;;;;;;;;6263683;28;20045;-69
2020/12/13 09:19:09;;;;;;;35.75;25.98;;;;;;;;;;6257560;28;20048;-70
2020/12/13 09:22:19;;;;;;;40.05;27.35;;;;;;;;;;6256448;28;20136;-72
2020/12/13 09:25:20;;;;;;;40.70;28.20;;;;;;;;;;6262801;28;20090;-69
2020/12/13 09:28:22;;;;;;;42.63;27.75;;;;;;;;;;6258286;28;20467;-69
2020/12/13 09:31:23;;;;;;;41.33;28.65;;;;;;;;;;6266121;28;20064;-69
2020/12/13 09:34:24;;;;;;;43.50;30.33;;;;;;;;;;6264286;28;20144;-69
2020/12/13 09:37:26;;;;;;;41.90;29.10;;;;;;;;;;6267402;28;20153;-69
2020/12/13 09:40:27;;;;;;;42.30;29.52;;;;;;;;;;6258175;28;20083;-69
2020/12/13 09:43:29;;;;;;;42.80;28.33;;;;;;;;;;6259843;28;20048;-70
2020/12/13 09:46:30;;;;;;;41.33;28.75;;;;;;;;;;6263918;28;20553;-68
2020/12/13 09:49:32;;;;;;;42.78;28.55;;;;;;;;;;6268815;28;20875;-69
2020/12/13 09:52:36;;;;;;;37.83;27.85;;;;;;;;;;6261895;28;20078;-69
2020/12/13 09:55:37;;;;;;;39.17;27.77;;;;;;;;;;6260741;28;20467;-69
2020/12/13 09:58:39;;;;;;;41.70;28.45;;;;;;;;;;6266918;28;20144;-68
2020/12/13 10:01:40;;;;;;;39.72;28.00;;;;;;;;;;6266037;28;20470;-68
2020/12/13 10:04:42;;;;;;;39.50;28.77;;;;;;;;;;6263453;28;20554;-70
2020/12/13 10:11:02;;;;;;;40.88;28.85;;;;;;;;;;6262642;28;20115;-70
2020/12/13 10:14:04;;;;;;;38.47;28.48;;;;;;;;;;6262278;28;20187;-68
2020/12/13 10:17:06;;;;;;;40.15;30.48;;;;;;;;;;6277145;28;20048;-69
2020/12/13 10:20:08;;;;;;;37.65;28.95;;;;;;;;;;6262669;28;20476;-69
2020/12/13 10:23:09;;;;;;;37.92;28.08;;;;;;;;;;6251691;28;20120;-70
2020/12/13 10:26:10;;;;;;;43.83;29.38;;;;;;;;;;6259722;28;20052;-68
2020/12/13 10:29:13;;;;;;;43.42;28.98;;;;;;;;;;6260623;28;20049;-69
2020/12/13 10:32:14;;;;;;;37.35;27.75;;;;;;;;;;6261712;28;20048;-69
2020/12/13 10:35:15;;;;;;;39.50;28.42;;;;;;;;;;6256308;28;20407;-69
2020/12/13 10:38:16;;;;;;;35.38;27.83;;;;;;;;;;6278096;28;20526;-70
2020/12/13 10:41:18;;;;;;;34.53;27.02;;;;;;;;;;6289786;28;20116;-70
2020/12/13 10:44:20;;;;;;;33.90;26.30;;;;;;;;;;6273269;28;20162;-72
2020/12/13 10:47:21;;;;;;;31.42;26.67;;;;;;;;;;6276181;28;20561;-68
2020/12/13 10:50:22;;;;;;;31.05;24.90;;;;;;;;;;6279413;28;20421;-69
2020/12/13 10:53:23;;;;;;;32.65;25.10;;;;;;;;;;6284488;28;20044;-70
2020/12/13 10:56:24;;;;;;;30.40;25.02;;;;;;;;;;6281039;28;20486;-69
2020/12/13 10:59:26;;;;;;;32.17;26.75;;;;;;;;;;6271759;28;20049;-72
2020/12/13 11:02:27;;;;;;;32.67;27.35;;;;;;;;;;6277639;28;20753;-71
2020/12/13 11:05:28;;;;;;;29.27;24.88;;;;;;;;;;6258510;28;20052;-71
2020/12/13 11:08:30;;;;;;;27.02;24.15;;;;;;;;;;5569896;28;10000620;-71
2020/12/13 11:11:31;;;;;;;27.10;23.05;;;;;;;;;;6265086;28;20677;-71
2020/12/13 11:14:32;;;;;;;25.42;22.40;;;;;;;;;;6281779;28;20045;-71
2020/12/13 11:17:35;;;;;;;24.90;22.25;;;;;;;;;;6275022;28;20155;-68
2020/12/13 11:20:36;;;;;;;25.42;22.02;;;;;;;;;;6278154;28;20096;-68
2020/12/13 11:23:37;;;;;;;24.50;21.70;;;;;;;;;;6275388;28;20500;-69
2020/12/13 11:26:38;;;;;;;24.17;21.15;;;;;;;;;;6263528;28;20187;-68
2020/12/13 11:29:40;;;;;;;27.25;22.20;;;;;;;;;;6259008;28;20577;-68
2020/12/13 11:32:43;;;;;;;25.73;21.98;;;;;;;;;;6257148;28;20439;-70
2020/12/13 11:35:44;;;;;;;24.63;21.85;;;;;;;;;;6256203;28;20088;-70
2020/12/13 11:38:46;;;;;;;26.40;22.30;;;;;;;;;;6254124;28;20158;-68
2020/12/13 11:41:47;;;;;;;28.17;23.15;;;;;;;;;;6260312;28;20551;-69
2020/12/13 11:44:48;;;;;;;29.80;24.23;;;;;;;;;;6250360;28;20224;-69
2020/12/13 11:47:49;;;;;;;29.23;23.98;;;;;;;;;;6252998;28;20130;-69
2020/12/13 11:50:52;;;;;;;28.63;24.17;;;;;;;;;;6263899;28;20523;-71
2020/12/13 11:53:53;;;;;;;28.48;23.60;;;;;;;;;;6254544;28;20057;-69
2020/12/13 11:56:55;;;;;;;28.58;23.75;;;;;;;;;;6254849;28;20136;-71
2020/12/13 11:59:57;;;;;;;30.35;24.90;;;;;;;;;;6254363;28;20127;-70
2020/12/13 12:02:58;;;;;;;27.05;23.58;;;;;;;;;;6258660;28;20127;-70
2020/12/13 12:05:59;;;;;;;30.90;25.25;;;;;;;;;;6256536;28;20041;-70
2020/12/13 12:09:00;;;;;;;29.90;24.80;;;;;;;;;;6254686;28;20058;-69
2020/12/13 12:12:01;;;;;;;32.38;25.80;;;;;;;;;;6250327;28;20131;-70
2020/12/13 12:15:03;;;;;;;31.20;25.23;;;;;;;;;;6245347;28;20140;-69
2020/12/13 12:18:04;;;;;;;30.75;24.55;;;;;;;;;;6246942;28;20041;-70
2020/12/13 12:21:06;;;;;;;28.20;24.08;;;;;;;;;;6256063;28;20456;-71
2020/12/13 12:24:07;;;;;;;27.45;24.45;;;;;;;;;;6262849;28;20049;-70
2020/12/13 12:27:09;;;;;;;30.15;25.90;;;;;;;;;;6256756;28;20053;-71
2020/12/13 12:30:10;;;;;;;30.33;25.13;;;;;;;;;;6267933;28;20208;-70
2020/12/13 12:33:11;;;;;;;27.70;24.63;;;;;;;;;;6255386;28;20091;-68
2020/12/13 12:36:17;;;;;;;29.75;24.05;;;;;;;;;;6258636;28;20049;-70
2020/12/13 12:39:18;;;;;;;29.77;24.85;;;;;;;;;;6258719;28;20060;-70
2020/12/13 12:42:19;;;;;;;29.30;24.38;;;;;;;;;;6265255;28;20041;-68
2020/12/13 12:45:21;;;;;;;26.23;23.30;;;;;;;;;;6256465;28;20122;-68
2020/12/13 12:48:24;;;;;;;27.05;23.63;;;;;;;;;;6255648;28;20044;-68
2020/12/13 12:51:27;;;;;;;26.90;23.20;;;;;;;;;;6258050;28;20583;-70
2020/12/13 12:54:28;;;;;;;28.65;24.08;;;;;;;;;;6248997;28;20044;-69
2020/12/13 12:57:29;;;;;;;28.10;24.20;;;;;;;;;;6263823;28;20037;-68
2020/12/13 13:00:43;;;;;;;26.55;23.30;;;;;;;;;;6263063;28;20049;-68
2020/12/13 13:03:46;;;;;;;27.98;24.23;;;;;;;;;;6244456;28;20761;-68
2020/12/13 13:07:02;;;;;;;29.87;24.90;;;;;;;;;;6260198;28;20056;-68
2020/12/13 13:10:08;;;;;;;30.00;24.83;;;;;;;;;;6251711;28;20052;-68
2020/12/13 13:13:09;;;;;;;31.30;24.80;;;;;;;;;;6244363;28;20401;-68
2020/12/13 13:16:14;;;;;;;28.83;24.23;;;;;;;;;;6258763;28;20040;-70
2020/12/13 13:19:16;;;;;;;31.13;25.88;;;;;;;;;;6256576;28;20132;-69
2020/12/13 13:22:17;;;;;;;30.55;26.17;;;;;;;;;;6265351;28;20191;-68
2020/12/13 13:25:18;;;;;;;31.27;27.25;;;;;;;;;;6279070;28;20075;-68
2020/12/13 13:28:19;;;;;;;32.70;27.15;;;;;;;;;;6273186;28;20472;-68
2020/12/13 13:31:22;;;;;;;33.92;28.70;;;;;;;;;;6263990;28;20524;-69
2020/12/13 13:34:24;;;;;;;33.22;27.83;;;;;;;;;;6261475;28;20416;-71
2020/12/13 13:37:25;;;;;;;33.92;28.35;;;;;;;;;;6260571;28;20084;-70
2020/12/13 13:40:26;;;;;;;31.80;26.25;;;;;;;;;;6260706;28;20052;-69
2020/12/13 13:43:27;;;;;;;37.20;29.20;;;;;;;;;;6258394;28;20045;-67
2020/12/13 13:46:40;;;;;;;38.15;29.60;;;;;;;;;;6260898;28;20057;-68
2020/12/13 13:53:03;;;;;;;44.78;28.20;;;;;;;;;;6279988;28;20045;-67
2020/12/13 13:56:08;;;;;;;36.20;27.70;;;;;;;;;;6271995;28;20163;-68
2020/12/13 13:59:12;;;;;;;36.67;28.98;;;;;;;;;;6280012;28;20557;-70
2020/12/13 14:02:14;;;;;;;36.45;26.85;;;;;;;;;;6284763;28;20080;-69
2020/12/13 14:05:15;;;;;;;39.13;28.35;;;;;;;;;;6280392;28;20123;-69
2020/12/13 14:11:35;;;;;;;33.35;25.92;;;;;;;;;;6255670;28;20611;-69
2020/12/13 14:14:36;;;;;;;33.67;26.35;;;;;;;;;;6257464;28;20049;-69
2020/12/13 14:17:38;;;;;;;35.78;25.80;;;;;;;;;;6260761;28;20527;-69
2020/12/13 14:20:39;;;;;;;32.78;24.90;;;;;;;;;;6251701;28;20064;-69
2020/12/13 14:23:40;;;;;;;36.90;25.50;;;;;;;;;;6257290;28;24566;-69
2020/12/13 14:26:42;;;;;;;32.42;24.77;;;;;;;;;;6258171;28;20132;-69
2020/12/13 14:29:43;;;;;;;32.33;24.25;;;;;;;;;;6255808;28;20053;-70
2020/12/13 14:32:45;;;;;;;35.05;24.30;;;;;;;;;;6250969;28;20063;-70
2020/12/13 14:35:46;;;;;;;30.98;23.52;;;;;;;;;;6254970;28;20041;-70
2020/12/13 14:38:47;;;;;;;31.20;22.27;;;;;;;;;;6251838;28;20049;-70
2020/12/13 14:41:55;;;;;;;31.15;22.85;;;;;;;;;;6278039;28;20091;-71
2020/12/13 14:44:56;;;;;;;32.65;22.90;;;;;;;;;;6279824;28;20045;-72
2020/12/13 14:48:04;;;;;;;31.73;23.65;;;;;;;;;;6264217;28;20064;-71
2020/12/13 14:51:06;;;;;;;31.17;22.20;;;;;;;;;;6248305;28;20048;-74
2020/12/13 14:54:07;;;;;;;29.45;22.50;;;;;;;;;;6261123;28;20749;-71
2020/12/13 14:57:08;;;;;;;26.52;19.92;;;;;;;;;;6251788;28;20463;-70
2020/12/13 15:00:09;;;;;;;28.60;20.63;;;;;;;;;;5906663;28;10000227;-70
2020/12/13 15:03:11;;;;;;;28.00;20.80;;;;;;;;;;6256194;28;20128;-70
2020/12/13 15:06:14;;;;;;;28.10;20.60;;;;;;;;;;6259164;28;20453;-71
2020/12/13 15:09:15;;;;;;;28.63;19.75;;;;;;;;;;6264041;28;20124;-69
2020/12/13 15:12:16;;;;;;;27.05;19.67;;;;;;;;;;6259435;28;20648;-69
2020/12/13 15:15:20;;;;;;;27.33;19.27;;;;;;;;;;6260401;28;20045;-72
2020/12/13 15:18:22;;;;;;;;;;;;;;;;;;6262084;28;20045;-72
2020/12/13 15:21:23;;;;;;;27.48;18.65;;;;;;;;;;6255413;28;20758;-71
2020/12/13 15:24:24;;;;;;;28.52;18.58;;;;;;;;;;6252582;28;20049;-72
2020/12/13 15:27:25;;;;;;;27.95;19.52;;;;;;;;;;6252860;28;20126;-71
2020/12/13 15:30:26;;;;;;;26.63;18.27;;;;;;;;;;6251967;28;20140;-72
2020/12/13 15:33:30;;;;;;;26.70;18.35;;;;;;;;;;6253648;28;20076;-71
2020/12/13 15:36:31;;;;;;;27.42;19.25;;;;;;;;;;6254698;28;20110;-70
2020/12/13 15:39:33;;;;;;;27.60;19.27;;;;;;;;;;5555686;28;9999983;-71
2020/12/13 15:42:36;;;;;;;31.92;20.80;;;;;;;;;;6252958;28;20065;-72
2020/12/13 15:45:37;;;;;;;32.70;20.65;;;;;;;;;;6257177;28;20396;-73
2020/12/13 15:48:39;;;;;;;28.08;20.08;;;;;;;;;;6253324;28;20129;-69
2020/12/13 15:51:40;;;;;;;29.05;20.15;;;;;;;;;;6251192;28;20408;-70
2020/12/13 15:54:41;;;;;;;28.63;19.15;;;;;;;;;;6248174;28;20042;-73
2020/12/13 15:57:43;;;;;;;27.35;17.98;;;;;;;;;;6254403;28;20544;-70
2020/12/13 16:00:44;;;;;;;25.92;18.25;;;;;;;;;;6252643;28;20083;-68
2020/12/13 16:03:48;;;;;;;26.35;16.77;;;;;;;;;;6250049;28;20160;-69
2020/12/13 16:06:49;;;;;;;;;;;;;;;;;;6253192;28;20536;-69
2020/12/13 16:09:50;;;;;;;21.52;15.82;;;;;;;;;;6253981;28;19920;-69
2020/12/13 16:12:51;;;;;;;22.08;16.00;;;;;;;;;;6252435;28;20744;-68
2020/12/13 16:15:52;;;;;;;22.23;15.63;;;;;;;;;;6258633;28;21583;-70
2020/12/13 16:18:54;;;;;;;21.90;15.68;;;;;;;;;;6252453;28;20045;-69
2020/12/13 16:21:55;;;;;;;20.65;15.10;;;;;;;;;;6248719;28;20041;-69
2020/12/13 16:24:56;;;;;;;23.42;15.90;;;;;;;;;;6259839;28;20053;-71
2020/12/13 16:27:59;;;;;;;20.65;14.98;;;;;;;;;;6256880;28;20179;-70
2020/12/13 16:31:00;;;;;;;20.05;15.02;;;;;;;;;;6255534;28;20082;-68
2020/12/13 16:34:02;;;;;;;25.58;15.88;;;;;;;;;;6263903;28;20583;-68
2020/12/13 16:37:04;;;;;;;22.02;15.82;;;;;;;;;;6253286;28;20163;-69
2020/12/13 16:40:08;;;;;;;22.55;16.40;;;;;;;;;;6254911;28;20045;-69
2020/12/13 16:46:27;;;;;;;24.50;16.00;;;;;;;;;;6249115;28;20057;-69
2020/12/13 16:56:08;;;;;;;26.58;16.70;;;;;;;;;;6261008;28;20120;-69
2020/12/13 16:59:09;;;;;;;25.50;17.98;;;;;;;;;;6249936;28;20152;-70
2020/12/13 17:02:11;;;;;;;24.48;17.88;;;;;;;;;;6251642;28;20053;-69
2020/12/13 17:05:13;;;;;;;21.92;16.42;;;;;;;;;;6257890;28;20056;-69
2020/12/13 17:08:14;;;;;;;24.98;16.58;;;;;;;;;;6260132;28;20073;-69
2020/12/13 17:11:21;;;;;;;24.05;17.40;;;;;;;;;;6258715;28;20048;-70
2020/12/13 17:14:22;;;;;;;23.52;16.42;;;;;;;;;;6273518;28;20212;-70
2020/12/13 17:17:23;;;;;;;22.60;16.08;;;;;;;;;;6283117;28;20124;-68
2020/12/13 17:20:25;;;;;;;20.13;15.30;;;;;;;;;;6285484;28;20141;-68
2020/12/13 17:23:26;;;;;;;20.88;16.02;;;;;;;;;;6284885;28;20071;-70
2020/12/13 17:26:27;;;;;;;22.80;15.38;;;;;;;;;;6284909;28;20493;-70
2020/12/13 17:29:28;;;;;;;22.17;16.10;;;;;;;;;;6282899;28;20135;-70
2020/12/13 17:32:29;;;;;;;22.13;16.35;;;;;;;;;;6280689;28;20060;-70
2020/12/13 17:35:31;;;;;;;20.23;14.93;;;;;;;;;;6284010;28;20142;-71
2020/12/13 17:38:32;;;;;;;23.08;16.45;;;;;;;;;;6285266;28;20131;-69
2020/12/13 17:41:37;;;;;;;24.20;17.25;;;;;;;;;;6254716;28;20091;-69
2020/12/13 17:44:40;;;;;;;24.00;16.88;;;;;;;;;;6255721;28;20467;-69
2020/12/13 17:47:41;;;;;;;21.50;17.05;;;;;;;;;;6249307;28;20251;-69
2020/12/13 17:50:56;;;;;;;27.58;16.48;;;;;;;;;;6260744;28;20128;-68
2020/12/13 17:54:07;;;;;;;24.40;17.40;;;;;;;;;;6257736;28;20037;-69
2020/12/13 17:57:11;;;;;;;25.83;17.50;;;;;;;;;;6270749;28;20443;-70
2020/12/13 18:00:15;;;;;;;24.83;18.15;;;;;;;;;;6269276;28;20045;-70
2020/12/13 18:03:16;;;;;;;28.25;19.98;;;;;;;;;;6262170;28;20604;-69
2020/12/13 18:06:18;;;;;;;27.10;19.73;;;;;;;;;;6253815;28;20497;-69